sensor_id;sensor_type;location;lat;lon;timestamp;P1;durP1;ratioP1;P2;durP2;ratioP2
18574;SDS011;9417;16.484;102.872;2022-09-27T00:00:05;16.45;;;12.43;;
18574;SDS011;9417;16.484;102.872;2022-09-27T00:02:14;17.55;;;13.45;;
18574;SDS011;9417;16.484;102.872;2022-09-27T00:04:21;18.02;;;13.70;;
18574;SDS011;9417;16.484;102.872;2022-09-27T00:06:29;20.27;;;14.57;;
18574;SDS011;9417;16.484;102.872;2022-09-27T00:08:42;22.88;;;16.10;;
18574;SDS011;9417;16.484;102.872;2022-09-27T00:10:49;24.05;;;17.48;;
18574;SDS011;9417;16.484;102.872;2022-09-27T00:13:06;23.20;;;16.42;;
18574;SDS011;9417;16.484;102.872;2022-09-27T00:15:13;21.50;;;16.13;;
18574;SDS011;9417;16.484;102.872;2022-09-27T00:17:20;21.13;;;13.90;;
18574;SDS011;9417;16.484;102.872;2022-09-27T00:19:28;21.92;;;15.13;;
18574;SDS011;9417;16.484;102.872;2022-09-27T00:21:35;20.55;;;14.77;;
18574;SDS011;9417;16.484;102.872;2022-09-27T00:23:42;25.30;;;17.67;;
18574;SDS011;9417;16.484;102.872;2022-09-27T00:25:56;27.40;;;18.88;;
18574;SDS011;9417;16.484;102.872;2022-09-27T00:28:04;26.50;;;19.25;;
18574;SDS011;9417;16.484;102.872;2022-09-27T00:30:13;26.83;;;18.40;;
18574;SDS011;9417;16.484;102.872;2022-09-27T00:32:21;26.55;;;18.50;;
18574;SDS011;9417;16.484;102.872;2022-09-27T00:34:27;26.52;;;18.23;;
18574;SDS011;9417;16.484;102.872;2022-09-27T00:36:35;27.27;;;18.92;;
18574;SDS011;9417;16.484;102.872;2022-09-27T00:38:42;29.15;;;20.15;;
18574;SDS011;9417;16.484;102.872;2022-09-27T00:40:53;31.52;;;20.08;;
18574;SDS011;9417;16.484;102.872;2022-09-27T00:43:00;30.70;;;19.90;;
18574;SDS011;9417;16.484;102.872;2022-09-27T00:45:13;27.20;;;19.55;;
18574;SDS011;9417;16.484;102.872;2022-09-27T00:47:22;27.33;;;17.40;;
18574;SDS011;9417;16.484;102.872;2022-09-27T00:49:34;27.08;;;18.48;;
18574;SDS011;9417;16.484;102.872;2022-09-27T00:51:46;31.67;;;20.45;;
18574;SDS011;9417;16.484;102.872;2022-09-27T00:53:57;33.25;;;20.90;;
18574;SDS011;9417;16.484;102.872;2022-09-27T00:56:05;29.67;;;19.30;;
18574;SDS011;9417;16.484;102.872;2022-09-27T00:58:16;29.88;;;19.63;;
18574;SDS011;9417;16.484;102.872;2022-09-27T01:00:27;31.52;;;20.67;;
18574;SDS011;9417;16.484;102.872;2022-09-27T01:02:35;30.63;;;20.02;;
18574;SDS011;9417;16.484;102.872;2022-09-27T01:04:44;28.98;;;21.20;;
18574;SDS011;9417;16.484;102.872;2022-09-27T01:06:53;32.75;;;21.13;;
18574;SDS011;9417;16.484;102.872;2022-09-27T01:09:00;31.15;;;22.38;;
18574;SDS011;9417;16.484;102.872;2022-09-27T01:11:12;27.30;;;20.17;;
18574;SDS011;9417;16.484;102.872;2022-09-27T01:13:25;29.92;;;20.95;;
18574;SDS011;9417;16.484;102.872;2022-09-27T01:15:44;33.55;;;21.23;;
18574;SDS011;9417;16.484;102.872;2022-09-27T01:18:00;35.45;;;22.20;;
18574;SDS011;9417;16.484;102.872;2022-09-27T01:20:36;30.75;;;21.08;;
18574;SDS011;9417;16.484;102.872;2022-09-27T01:23:07;29.20;;;20.25;;
18574;SDS011;9417;16.484;102.872;2022-09-27T01:25:36;29.27;;;20.58;;
18574;SDS011;9417;16.484;102.872;2022-09-27T01:28:06;28.15;;;21.20;;
18574;SDS011;9417;16.484;102.872;2022-09-27T01:30:31;28.75;;;20.58;;
18574;SDS011;9417;16.484;102.872;2022-09-27T01:33:06;31.00;;;20.00;;
18574;SDS011;9417;16.484;102.872;2022-09-27T01:35:33;29.48;;;21.13;;
18574;SDS011;9417;16.484;102.872;2022-09-27T01:37:48;29.80;;;21.15;;
18574;SDS011;9417;16.484;102.872;2022-09-27T01:40:00;29.73;;;21.00;;
18574;SDS011;9417;16.484;102.872;2022-09-27T01:42:27;27.65;;;20.33;;
18574;SDS011;9417;16.484;102.872;2022-09-27T01:44:45;29.80;;;20.75;;
18574;SDS011;9417;16.484;102.872;2022-09-27T01:47:04;30.63;;;21.60;;
18574;SDS011;9417;16.484;102.872;2022-09-27T01:49:30;29.20;;;20.50;;
18574;SDS011;9417;16.484;102.872;2022-09-27T01:51:44;29.15;;;20.92;;
18574;SDS011;9417;16.484;102.872;2022-09-27T01:53:57;31.33;;;23.17;;
18574;SDS011;9417;16.484;102.872;2022-09-27T01:56:25;30.23;;;22.10;;
18574;SDS011;9417;16.484;102.872;2022-09-27T01:58:42;26.10;;;20.55;;
18574;SDS011;9417;16.484;102.872;2022-09-27T02:00:57;27.77;;;20.35;;
18574;SDS011;9417;16.484;102.872;2022-09-27T02:03:09;29.45;;;21.67;;
18574;SDS011;9417;16.484;102.872;2022-09-27T02:05:30;28.85;;;21.15;;
18574;SDS011;9417;16.484;102.872;2022-09-27T02:08:01;29.08;;;20.40;;
18574;SDS011;9417;16.484;102.872;2022-09-27T02:10:14;26.13;;;20.10;;
18574;SDS011;9417;16.484;102.872;2022-09-27T02:12:31;25.02;;;21.00;;
18574;SDS011;9417;16.484;102.872;2022-09-27T02:14:48;28.98;;;22.35;;
18574;SDS011;9417;16.484;102.872;2022-09-27T02:17:04;29.80;;;21.50;;
18574;SDS011;9417;16.484;102.872;2022-09-27T02:19:20;28.60;;;21.88;;
18574;SDS011;9417;16.484;102.872;2022-09-27T02:21:39;26.42;;;21.83;;
18574;SDS011;9417;16.484;102.872;2022-09-27T02:23:49;25.95;;;19.88;;
18574;SDS011;9417;16.484;102.872;2022-09-27T02:26:03;24.45;;;19.90;;
18574;SDS011;9417;16.484;102.872;2022-09-27T02:28:21;26.75;;;20.05;;
18574;SDS011;9417;16.484;102.872;2022-09-27T02:30:33;32.28;;;21.48;;
18574;SDS011;9417;16.484;102.872;2022-09-27T02:32:59;28.98;;;21.48;;
18574;SDS011;9417;16.484;102.872;2022-09-27T02:35:11;24.83;;;21.08;;
18574;SDS011;9417;16.484;102.872;2022-09-27T02:37:22;26.30;;;21.63;;
18574;SDS011;9417;16.484;102.872;2022-09-27T02:39:29;27.75;;;21.67;;
18574;SDS011;9417;16.484;102.872;2022-09-27T02:41:40;25.13;;;20.35;;
18574;SDS011;9417;16.484;102.872;2022-09-27T02:43:48;26.20;;;21.75;;
18574;SDS011;9417;16.484;102.872;2022-09-27T02:46:03;27.05;;;21.55;;
18574;SDS011;9417;16.484;102.872;2022-09-27T02:48:28;25.50;;;20.55;;
18574;SDS011;9417;16.484;102.872;2022-09-27T02:50:59;28.08;;;22.40;;
18574;SDS011;9417;16.484;102.872;2022-09-27T02:53:23;24.80;;;21.70;;
18574;SDS011;9417;16.484;102.872;2022-09-27T02:55:50;26.08;;;22.33;;
18574;SDS011;9417;16.484;102.872;2022-09-27T02:58:24;23.92;;;20.35;;
18574;SDS011;9417;16.484;102.872;2022-09-27T03:00:54;25.88;;;21.70;;
18574;SDS011;9417;16.484;102.872;2022-09-27T03:05:36;24.33;;;20.27;;
18574;SDS011;9417;16.484;102.872;2022-09-27T03:07:49;26.38;;;21.95;;
18574;SDS011;9417;16.484;102.872;2022-09-27T03:09:56;25.85;;;20.58;;
18574;SDS011;9417;16.484;102.872;2022-09-27T03:12:04;23.55;;;20.10;;
18574;SDS011;9417;16.484;102.872;2022-09-27T03:14:11;26.02;;;21.38;;
18574;SDS011;9417;16.484;102.872;2022-09-27T03:16:38;25.90;;;20.08;;
18574;SDS011;9417;16.484;102.872;2022-09-27T03:18:58;26.52;;;20.70;;
18574;SDS011;9417;16.484;102.872;2022-09-27T03:21:18;24.88;;;21.13;;
18574;SDS011;9417;16.484;102.872;2022-09-27T03:23:26;25.65;;;20.65;;
18574;SDS011;9417;16.484;102.872;2022-09-27T03:25:35;24.95;;;21.17;;
18574;SDS011;9417;16.484;102.872;2022-09-27T03:27:46;25.95;;;22.40;;
18574;SDS011;9417;16.484;102.872;2022-09-27T03:29:55;26.10;;;20.83;;
18574;SDS011;9417;16.484;102.872;2022-09-27T03:32:04;25.55;;;21.08;;
18574;SDS011;9417;16.484;102.872;2022-09-27T03:34:28;26.80;;;21.15;;
18574;SDS011;9417;16.484;102.872;2022-09-27T03:36:35;25.27;;;22.08;;
18574;SDS011;9417;16.484;102.872;2022-09-27T03:38:44;25.83;;;20.80;;
18574;SDS011;9417;16.484;102.872;2022-09-27T03:40:53;23.20;;;20.70;;
18574;SDS011;9417;16.484;102.872;2022-09-27T03:43:01;23.48;;;20.92;;
18574;SDS011;9417;16.484;102.872;2022-09-27T03:45:09;28.02;;;21.45;;
18574;SDS011;9417;16.484;102.872;2022-09-27T03:47:16;26.30;;;21.95;;
18574;SDS011;9417;16.484;102.872;2022-09-27T03:49:23;25.23;;;21.52;;
18574;SDS011;9417;16.484;102.872;2022-09-27T03:51:31;25.55;;;21.02;;
18574;SDS011;9417;16.484;102.872;2022-09-27T03:53:38;25.85;;;22.35;;
18574;SDS011;9417;16.484;102.872;2022-09-27T03:55:47;25.27;;;21.98;;
18574;SDS011;9417;16.484;102.872;2022-09-27T03:57:54;24.58;;;21.95;;
18574;SDS011;9417;16.484;102.872;2022-09-27T04:00:02;27.23;;;20.77;;
18574;SDS011;9417;16.484;102.872;2022-09-27T04:02:12;22.63;;;19.77;;
18574;SDS011;9417;16.484;102.872;2022-09-27T04:04:32;24.50;;;20.58;;
18574;SDS011;9417;16.484;102.872;2022-09-27T04:06:39;23.02;;;19.42;;
18574;SDS011;9417;16.484;102.872;2022-09-27T04:08:46;23.73;;;19.90;;
18574;SDS011;9417;16.484;102.872;2022-09-27T04:10:55;23.88;;;20.17;;
18574;SDS011;9417;16.484;102.872;2022-09-27T04:13:03;23.35;;;20.80;;
18574;SDS011;9417;16.484;102.872;2022-09-27T04:15:21;22.70;;;20.38;;
18574;SDS011;9417;16.484;102.872;2022-09-27T04:17:48;23.25;;;19.73;;
18574;SDS011;9417;16.484;102.872;2022-09-27T04:20:08;23.65;;;19.75;;
18574;SDS011;9417;16.484;102.872;2022-09-27T04:22:17;22.25;;;19.05;;
18574;SDS011;9417;16.484;102.872;2022-09-27T04:24:24;21.38;;;19.10;;
18574;SDS011;9417;16.484;102.872;2022-09-27T04:26:51;24.80;;;20.42;;
18574;SDS011;9417;16.484;102.872;2022-09-27T04:31:12;22.52;;;20.08;;
18574;SDS011;9417;16.484;102.872;2022-09-27T04:33:39;21.90;;;19.27;;
18574;SDS011;9417;16.484;102.872;2022-09-27T04:35:56;23.60;;;20.30;;
18574;SDS011;9417;16.484;102.872;2022-09-27T04:38:33;24.73;;;20.65;;
18574;SDS011;9417;16.484;102.872;2022-09-27T04:40:43;22.52;;;20.23;;
18574;SDS011;9417;16.484;102.872;2022-09-27T04:42:53;23.80;;;19.95;;
18574;SDS011;9417;16.484;102.872;2022-09-27T04:45:01;23.27;;;20.48;;
18574;SDS011;9417;16.484;102.872;2022-09-27T04:47:09;24.40;;;20.98;;
18574;SDS011;9417;16.484;102.872;2022-09-27T04:49:17;22.85;;;20.45;;
18574;SDS011;9417;16.484;102.872;2022-09-27T04:51:24;23.20;;;20.73;;
18574;SDS011;9417;16.484;102.872;2022-09-27T04:53:32;23.48;;;20.63;;
18574;SDS011;9417;16.484;102.872;2022-09-27T04:55:43;23.25;;;20.75;;
18574;SDS011;9417;16.484;102.872;2022-09-27T04:57:54;25.02;;;21.00;;
18574;SDS011;9417;16.484;102.872;2022-09-27T05:00:03;22.98;;;20.48;;
18574;SDS011;9417;16.484;102.872;2022-09-27T05:02:12;23.90;;;21.40;;
18574;SDS011;9417;16.484;102.872;2022-09-27T06:26:14;19.95;;;17.88;;
18574;SDS011;9417;16.484;102.872;2022-09-27T06:28:33;20.27;;;18.00;;
18574;SDS011;9417;16.484;102.872;2022-09-27T06:30:41;22.10;;;18.00;;
18574;SDS011;9417;16.484;102.872;2022-09-27T06:33:09;18.38;;;16.20;;
18574;SDS011;9417;16.484;102.872;2022-09-27T06:35:24;19.48;;;17.33;;
18574;SDS011;9417;16.484;102.872;2022-09-27T06:37:32;19.90;;;16.42;;
18574;SDS011;9417;16.484;102.872;2022-09-27T06:39:39;19.80;;;16.40;;
18574;SDS011;9417;16.484;102.872;2022-09-27T06:42:00;20.88;;;18.08;;
18574;SDS011;9417;16.484;102.872;2022-09-27T06:44:19;18.80;;;16.92;;
18574;SDS011;9417;16.484;102.872;2022-09-27T06:46:38;18.25;;;16.42;;
18574;SDS011;9417;16.484;102.872;2022-09-27T06:48:46;21.60;;;17.02;;
18574;SDS011;9417;16.484;102.872;2022-09-27T06:50:54;18.48;;;16.02;;
18574;SDS011;9417;16.484;102.872;2022-09-27T06:53:03;18.33;;;16.42;;
18574;SDS011;9417;16.484;102.872;2022-09-27T06:55:11;21.20;;;15.90;;
18574;SDS011;9417;16.484;102.872;2022-09-27T06:57:20;18.23;;;15.45;;
18574;SDS011;9417;16.484;102.872;2022-09-27T06:59:40;19.17;;;16.35;;
18574;SDS011;9417;16.484;102.872;2022-09-27T07:02:16;19.35;;;17.38;;
18574;SDS011;9417;16.484;102.872;2022-09-27T07:04:42;17.95;;;16.05;;
18574;SDS011;9417;16.484;102.872;2022-09-27T07:07:01;18.20;;;15.93;;
18574;SDS011;9417;16.484;102.872;2022-09-27T07:09:14;18.70;;;16.73;;
18574;SDS011;9417;16.484;102.872;2022-09-27T07:11:22;18.02;;;16.13;;
18574;SDS011;9417;16.484;102.872;2022-09-27T07:13:32;17.42;;;15.35;;
18574;SDS011;9417;16.484;102.872;2022-09-27T07:15:46;17.52;;;15.35;;
18574;SDS011;9417;16.484;102.872;2022-09-27T07:17:55;19.55;;;15.75;;
18574;SDS011;9417;16.484;102.872;2022-09-27T07:20:03;18.30;;;16.25;;
18574;SDS011;9417;16.484;102.872;2022-09-27T07:22:12;19.58;;;16.23;;
18574;SDS011;9417;16.484;102.872;2022-09-27T07:24:25;19.75;;;16.42;;
18574;SDS011;9417;16.484;102.872;2022-09-27T07:26:34;19.95;;;16.30;;
18574;SDS011;9417;16.484;102.872;2022-09-27T07:28:45;18.20;;;16.25;;
18574;SDS011;9417;16.484;102.872;2022-09-27T07:30:57;19.02;;;17.13;;
18574;SDS011;9417;16.484;102.872;2022-09-27T07:33:05;18.30;;;15.93;;
18574;SDS011;9417;16.484;102.872;2022-09-27T07:35:13;19.70;;;17.60;;
18574;SDS011;9417;16.484;102.872;2022-09-27T07:37:21;18.40;;;16.50;;
18574;SDS011;9417;16.484;102.872;2022-09-27T07:39:28;17.17;;;15.32;;
18574;SDS011;9417;16.484;102.872;2022-09-27T07:41:37;18.13;;;15.65;;
18574;SDS011;9417;16.484;102.872;2022-09-27T07:43:47;19.90;;;16.92;;
18574;SDS011;9417;16.484;102.872;2022-09-27T07:45:57;19.02;;;16.10;;
18574;SDS011;9417;16.484;102.872;2022-09-27T07:48:20;18.52;;;16.63;;
18574;SDS011;9417;16.484;102.872;2022-09-27T07:50:47;19.15;;;15.70;;
18574;SDS011;9417;16.484;102.872;2022-09-27T07:53:13;17.17;;;15.25;;
18574;SDS011;9417;16.484;102.872;2022-09-27T07:55:41;19.08;;;17.10;;
18574;SDS011;9417;16.484;102.872;2022-09-27T07:58:01;20.00;;;16.40;;
18574;SDS011;9417;16.484;102.872;2022-09-27T08:00:12;17.65;;;15.65;;
18574;SDS011;9417;16.484;102.872;2022-09-27T08:02:21;19.33;;;14.57;;
18574;SDS011;9417;16.484;102.872;2022-09-27T08:04:29;18.25;;;16.35;;
18574;SDS011;9417;16.484;102.872;2022-09-27T08:06:36;19.88;;;17.13;;
18574;SDS011;9417;16.484;102.872;2022-09-27T08:08:44;18.80;;;16.83;;
18574;SDS011;9417;16.484;102.872;2022-09-27T08:10:52;17.75;;;15.88;;
18574;SDS011;9417;16.484;102.872;2022-09-27T08:13:00;18.95;;;15.55;;
18574;SDS011;9417;16.484;102.872;2022-09-27T08:15:08;20.15;;;16.20;;
18574;SDS011;9417;16.484;102.872;2022-09-27T08:17:18;19.58;;;15.52;;
18574;SDS011;9417;16.484;102.872;2022-09-27T08:19:39;18.30;;;15.52;;
18574;SDS011;9417;16.484;102.872;2022-09-27T08:21:59;18.33;;;16.25;;
18574;SDS011;9417;16.484;102.872;2022-09-27T08:24:15;19.35;;;16.52;;
18574;SDS011;9417;16.484;102.872;2022-09-27T08:26:42;18.00;;;16.20;;
18574;SDS011;9417;16.484;102.872;2022-09-27T08:29:01;17.25;;;15.38;;
18574;SDS011;9417;16.484;102.872;2022-09-27T08:31:16;17.17;;;15.48;;
18574;SDS011;9417;16.484;102.872;2022-09-27T08:33:23;17.95;;;16.05;;
18574;SDS011;9417;16.484;102.872;2022-09-27T08:35:35;19.55;;;16.40;;
18574;SDS011;9417;16.484;102.872;2022-09-27T08:37:43;19.73;;;16.17;;
18574;SDS011;9417;16.484;102.872;2022-09-27T08:39:57;18.25;;;15.82;;
18574;SDS011;9417;16.484;102.872;2022-09-27T08:42:09;18.33;;;15.15;;
18574;SDS011;9417;16.484;102.872;2022-09-27T08:44:25;21.00;;;17.00;;
18574;SDS011;9417;16.484;102.872;2022-09-27T08:46:49;19.50;;;17.20;;
18574;SDS011;9417;16.484;102.872;2022-09-27T08:49:03;18.17;;;16.00;;
18574;SDS011;9417;16.484;102.872;2022-09-27T08:51:14;18.40;;;16.48;;
18574;SDS011;9417;16.484;102.872;2022-09-27T08:53:26;17.83;;;15.93;;
18574;SDS011;9417;16.484;102.872;2022-09-27T08:55:38;17.57;;;15.77;;
18574;SDS011;9417;16.484;102.872;2022-09-27T08:57:52;16.63;;;14.88;;
18574;SDS011;9417;16.484;102.872;2022-09-27T09:00:04;19.73;;;16.02;;
18574;SDS011;9417;16.484;102.872;2022-09-27T09:02:19;20.50;;;15.65;;
18574;SDS011;9417;16.484;102.872;2022-09-27T09:04:29;18.35;;;16.40;;
18574;SDS011;9417;16.484;102.872;2022-09-27T09:06:43;18.17;;;16.30;;
18574;SDS011;9417;16.484;102.872;2022-09-27T09:08:58;17.60;;;15.60;;
18574;SDS011;9417;16.484;102.872;2022-09-27T09:11:24;17.90;;;15.35;;
18574;SDS011;9417;16.484;102.872;2022-09-27T09:14:00;17.05;;;15.23;;
18574;SDS011;9417;16.484;102.872;2022-09-27T09:16:28;17.70;;;15.77;;
18574;SDS011;9417;16.484;102.872;2022-09-27T09:18:51;19.02;;;16.77;;
18574;SDS011;9417;16.484;102.872;2022-09-27T09:21:17;20.10;;;17.05;;
18574;SDS011;9417;16.484;102.872;2022-09-27T09:26:23;18.08;;;16.15;;
18574;SDS011;9417;16.484;102.872;2022-09-27T09:28:40;17.63;;;15.75;;
18574;SDS011;9417;16.484;102.872;2022-09-27T09:31:00;17.40;;;15.60;;
18574;SDS011;9417;16.484;102.872;2022-09-27T09:33:15;18.25;;;16.45;;
18574;SDS011;9417;16.484;102.872;2022-09-27T09:35:30;19.00;;;17.00;;
18574;SDS011;9417;16.484;102.872;2022-09-27T09:37:44;19.35;;;17.27;;
18574;SDS011;9417;16.484;102.872;2022-09-27T09:39:54;19.58;;;17.60;;
18574;SDS011;9417;16.484;102.872;2022-09-27T09:42:11;18.85;;;16.77;;
18574;SDS011;9417;16.484;102.872;2022-09-27T09:44:22;20.92;;;16.83;;
18574;SDS011;9417;16.484;102.872;2022-09-27T09:46:37;19.55;;;17.63;;
18574;SDS011;9417;16.484;102.872;2022-09-27T09:48:48;20.20;;;18.00;;
18574;SDS011;9417;16.484;102.872;2022-09-27T09:51:03;21.83;;;18.17;;
18574;SDS011;9417;16.484;102.872;2022-09-27T09:53:14;19.50;;;17.45;;
18574;SDS011;9417;16.484;102.872;2022-09-27T09:55:25;21.13;;;18.63;;
18574;SDS011;9417;16.484;102.872;2022-09-27T09:57:37;20.92;;;18.02;;
18574;SDS011;9417;16.484;102.872;2022-09-27T09:59:57;21.92;;;19.08;;
18574;SDS011;9417;16.484;102.872;2022-09-27T10:02:19;21.42;;;19.30;;
18574;SDS011;9417;16.484;102.872;2022-09-27T10:04:39;22.33;;;20.00;;
18574;SDS011;9417;16.484;102.872;2022-09-27T10:06:47;20.90;;;18.40;;
18574;SDS011;9417;16.484;102.872;2022-09-27T10:08:57;20.73;;;18.52;;
18574;SDS011;9417;16.484;102.872;2022-09-27T10:11:17;20.33;;;18.23;;
18574;SDS011;9417;16.484;102.872;2022-09-27T10:13:45;22.83;;;18.47;;
18574;SDS011;9417;16.484;102.872;2022-09-27T10:15:55;29.10;;;19.65;;
18574;SDS011;9417;16.484;102.872;2022-09-27T10:18:08;22.77;;;19.05;;
18574;SDS011;9417;16.484;102.872;2022-09-27T10:20:27;25.95;;;19.95;;
18574;SDS011;9417;16.484;102.872;2022-09-27T10:22:42;21.13;;;18.50;;
18574;SDS011;9417;16.484;102.872;2022-09-27T10:25:11;21.00;;;18.67;;
18574;SDS011;9417;16.484;102.872;2022-09-27T10:27:37;21.95;;;19.65;;
18574;SDS011;9417;16.484;102.872;2022-09-27T10:29:55;21.20;;;19.02;;
18574;SDS011;9417;16.484;102.872;2022-09-27T10:32:04;22.30;;;20.02;;
18574;SDS011;9417;16.484;102.872;2022-09-27T10:34:34;21.90;;;19.48;;
18574;SDS011;9417;16.484;102.872;2022-09-27T10:36:46;23.00;;;20.58;;
18574;SDS011;9417;16.484;102.872;2022-09-27T10:39:21;22.77;;;20.30;;
18574;SDS011;9417;16.484;102.872;2022-09-27T10:41:31;24.80;;;21.40;;
18574;SDS011;9417;16.484;102.872;2022-09-27T10:43:43;24.17;;;20.83;;
18574;SDS011;9417;16.484;102.872;2022-09-27T10:46:01;23.33;;;20.70;;
18574;SDS011;9417;16.484;102.872;2022-09-27T10:48:20;29.48;;;21.10;;
18574;SDS011;9417;16.484;102.872;2022-09-27T10:50:30;23.27;;;20.35;;
18574;SDS011;9417;16.484;102.872;2022-09-27T10:53:11;22.33;;;20.03;;
18574;SDS011;9417;16.484;102.872;2022-09-27T10:55:33;24.33;;;20.48;;
18574;SDS011;9417;16.484;102.872;2022-09-27T10:57:46;22.25;;;19.88;;
18574;SDS011;9417;16.484;102.872;2022-09-27T10:59:55;24.02;;;20.65;;
18574;SDS011;9417;16.484;102.872;2022-09-27T11:02:05;22.10;;;19.70;;
18574;SDS011;9417;16.484;102.872;2022-09-27T11:04:35;24.67;;;21.20;;
18574;SDS011;9417;16.484;102.872;2022-09-27T11:06:44;21.52;;;19.23;;
18574;SDS011;9417;16.484;102.872;2022-09-27T11:08:52;24.05;;;20.77;;
18574;SDS011;9417;16.484;102.872;2022-09-27T11:11:03;22.73;;;20.38;;
18574;SDS011;9417;16.484;102.872;2022-09-27T11:13:12;25.08;;;21.33;;
18574;SDS011;9417;16.484;102.872;2022-09-27T11:15:25;22.17;;;19.80;;
18574;SDS011;9417;16.484;102.872;2022-09-27T11:17:37;25.05;;;21.55;;
18574;SDS011;9417;16.484;102.872;2022-09-27T11:22:40;23.67;;;21.13;;
18574;SDS011;9417;16.484;102.872;2022-09-27T11:25:12;25.70;;;21.17;;
18574;SDS011;9417;16.484;102.872;2022-09-27T11:27:30;26.65;;;20.92;;
18574;SDS011;9417;16.484;102.872;2022-09-27T11:29:53;23.17;;;20.50;;
18574;SDS011;9417;16.484;102.872;2022-09-27T11:32:22;23.75;;;21.08;;
18574;SDS011;9417;16.484;102.872;2022-09-27T11:34:43;25.65;;;21.05;;
18574;SDS011;9417;16.484;102.872;2022-09-27T11:37:15;25.88;;;21.75;;
18574;SDS011;9417;16.484;102.872;2022-09-27T11:39:31;25.95;;;22.63;;
18574;SDS011;9417;16.484;102.872;2022-09-27T11:41:56;25.15;;;22.55;;
18574;SDS011;9417;16.484;102.872;2022-09-27T11:44:26;26.05;;;23.08;;
18574;SDS011;9417;16.484;102.872;2022-09-27T11:47:19;28.30;;;25.17;;
18574;SDS011;9417;16.484;102.872;2022-09-27T11:49:38;30.30;;;26.45;;
18574;SDS011;9417;16.484;102.872;2022-09-27T11:57:24;30.95;;;27.13;;
18574;SDS011;9417;16.484;102.872;2022-09-27T11:59:57;32.72;;;27.17;;
18574;SDS011;9417;16.484;102.872;2022-09-27T12:05:23;28.42;;;25.45;;
18574;SDS011;9417;16.484;102.872;2022-09-27T12:07:39;30.13;;;24.52;;
18574;SDS011;9417;16.484;102.872;2022-09-27T12:09:58;26.60;;;23.73;;
18574;SDS011;9417;16.484;102.872;2022-09-27T12:12:10;26.88;;;22.02;;
18574;SDS011;9417;16.484;102.872;2022-09-27T12:14:22;27.52;;;23.75;;
18574;SDS011;9417;16.484;102.872;2022-09-27T12:16:36;30.85;;;24.00;;
18574;SDS011;9417;16.484;102.872;2022-09-27T12:18:45;27.25;;;24.35;;
18574;SDS011;9417;16.484;102.872;2022-09-27T12:21:14;27.92;;;24.88;;
18574;SDS011;9417;16.484;102.872;2022-09-27T12:23:23;28.05;;;24.92;;
18574;SDS011;9417;16.484;102.872;2022-09-27T12:25:58;27.55;;;24.48;;
18574;SDS011;9417;16.484;102.872;2022-09-27T12:30:20;27.75;;;23.02;;
18574;SDS011;9417;16.484;102.872;2022-09-27T12:32:29;26.88;;;23.58;;
18574;SDS011;9417;16.484;102.872;2022-09-27T12:34:43;27.00;;;23.88;;
18574;SDS011;9417;16.484;102.872;2022-09-27T12:36:57;27.50;;;24.60;;
18574;SDS011;9417;16.484;102.872;2022-09-27T12:39:08;30.83;;;25.60;;
18574;SDS011;9417;16.484;102.872;2022-09-27T12:41:23;32.28;;;25.60;;
18574;SDS011;9417;16.484;102.872;2022-09-27T12:43:47;30.08;;;25.40;;
18574;SDS011;9417;16.484;102.872;2022-09-27T12:46:07;28.15;;;23.92;;
18574;SDS011;9417;16.484;102.872;2022-09-27T12:48:22;29.05;;;23.27;;
18574;SDS011;9417;16.484;102.872;2022-09-27T12:50:37;28.95;;;24.33;;
18574;SDS011;9417;16.484;102.872;2022-09-27T12:52:49;28.30;;;24.38;;
18574;SDS011;9417;16.484;102.872;2022-09-27T12:55:06;29.48;;;23.33;;
18574;SDS011;9417;16.484;102.872;2022-09-27T12:57:34;26.30;;;22.70;;
18574;SDS011;9417;16.484;102.872;2022-09-27T13:00:00;30.15;;;23.60;;
18574;SDS011;9417;16.484;102.872;2022-09-27T13:02:26;28.70;;;24.33;;
18574;SDS011;9417;16.484;102.872;2022-09-27T13:07:50;33.50;;;25.88;;
18574;SDS011;9417;16.484;102.872;2022-09-27T13:10:20;29.42;;;25.67;;
18574;SDS011;9417;16.484;102.872;2022-09-27T13:12:56;33.08;;;26.02;;
18574;SDS011;9417;16.484;102.872;2022-09-27T13:15:06;30.98;;;25.90;;
18574;SDS011;9417;16.484;102.872;2022-09-27T13:17:32;30.52;;;25.90;;
18574;SDS011;9417;16.484;102.872;2022-09-27T13:23:00;34.80;;;27.27;;
18574;SDS011;9417;16.484;102.872;2022-09-27T13:30:46;36.30;;;28.67;;
18574;SDS011;9417;16.484;102.872;2022-09-27T13:35:30;35.17;;;28.77;;
18574;SDS011;9417;16.484;102.872;2022-09-27T13:37:46;36.80;;;29.08;;
18574;SDS011;9417;16.484;102.872;2022-09-27T13:43:06;40.65;;;31.77;;
18574;SDS011;9417;16.484;102.872;2022-09-27T13:45:36;40.78;;;30.92;;
18574;SDS011;9417;16.484;102.872;2022-09-27T13:47:47;43.05;;;31.98;;
18574;SDS011;9417;16.484;102.872;2022-09-27T13:50:13;40.90;;;31.58;;
18574;SDS011;9417;16.484;102.872;2022-09-27T13:52:32;40.92;;;33.40;;
18574;SDS011;9417;16.484;102.872;2022-09-27T13:54:50;39.80;;;32.75;;
18574;SDS011;9417;16.484;102.872;2022-09-27T13:57:04;40.47;;;30.92;;
18574;SDS011;9417;16.484;102.872;2022-09-27T13:59:33;39.75;;;31.25;;
18574;SDS011;9417;16.484;102.872;2022-09-27T14:02:15;39.53;;;32.55;;
18574;SDS011;9417;16.484;102.872;2022-09-27T14:04:30;35.38;;;28.98;;
18574;SDS011;9417;16.484;102.872;2022-09-27T14:06:42;36.75;;;29.33;;
18574;SDS011;9417;16.484;102.872;2022-09-27T14:08:52;36.25;;;28.10;;
18574;SDS011;9417;16.484;102.872;2022-09-27T14:11:03;36.83;;;29.27;;
18574;SDS011;9417;16.484;102.872;2022-09-27T14:13:20;39.03;;;30.17;;
18574;SDS011;9417;16.484;102.872;2022-09-27T14:15:35;39.85;;;31.55;;
18574;SDS011;9417;16.484;102.872;2022-09-27T14:17:42;39.95;;;30.77;;
18574;SDS011;9417;16.484;102.872;2022-09-27T14:19:49;39.40;;;30.67;;
18574;SDS011;9417;16.484;102.872;2022-09-27T14:21:57;41.13;;;31.65;;
18574;SDS011;9417;16.484;102.872;2022-09-27T14:24:29;40.00;;;31.05;;
18574;SDS011;9417;16.484;102.872;2022-09-27T14:26:45;34.67;;;28.38;;
18574;SDS011;9417;16.484;102.872;2022-09-27T14:28:54;39.55;;;29.83;;
18574;SDS011;9417;16.484;102.872;2022-09-27T14:31:09;34.63;;;30.45;;
18574;SDS011;9417;16.484;102.872;2022-09-27T14:33:33;36.70;;;29.30;;
18574;SDS011;9417;16.484;102.872;2022-09-27T14:35:45;40.08;;;29.77;;
18574;SDS011;9417;16.484;102.872;2022-09-27T14:38:12;35.85;;;29.58;;
18574;SDS011;9417;16.484;102.872;2022-09-27T14:40:57;34.13;;;28.98;;
18574;SDS011;9417;16.484;102.872;2022-09-27T14:43:05;35.50;;;29.20;;
18574;SDS011;9417;16.484;102.872;2022-09-27T14:45:20;39.97;;;29.75;;
18574;SDS011;9417;16.484;102.872;2022-09-27T14:47:31;34.17;;;28.98;;
18574;SDS011;9417;16.484;102.872;2022-09-27T14:49:45;34.22;;;28.23;;
18574;SDS011;9417;16.484;102.872;2022-09-27T14:51:54;34.17;;;27.67;;
18574;SDS011;9417;16.484;102.872;2022-09-27T14:54:01;37.15;;;28.75;;
18574;SDS011;9417;16.484;102.872;2022-09-27T14:56:10;32.28;;;27.23;;
18574;SDS011;9417;16.484;102.872;2022-09-27T14:58:22;32.28;;;26.95;;
18574;SDS011;9417;16.484;102.872;2022-09-27T15:00:50;34.20;;;27.13;;